sensor_id;sensor_type;location;lat;lon;timestamp;temperature;humidity
52799;DHT22;38667;42.872;74.622;2023-07-31T00:01:25;25.60;41.70
52799;DHT22;38667;42.872;74.622;2023-07-31T00:03:51;25.40;43.20
52799;DHT22;38667;42.872;74.622;2023-07-31T00:06:18;25.40;42.10
52799;DHT22;38667;42.872;74.622;2023-07-31T00:08:45;25.60;41.10
52799;DHT22;38667;42.872;74.622;2023-07-31T00:11:12;25.60;44.00
52799;DHT22;38667;42.872;74.622;2023-07-31T00:13:38;25.50;44.30
52799;DHT22;38667;42.872;74.622;2023-07-31T00:16:05;25.40;43.40
52799;DHT22;38667;42.872;74.622;2023-07-31T00:18:31;25.60;42.50
52799;DHT22;38667;42.872;74.622;2023-07-31T00:20:58;25.80;42.70
52799;DHT22;38667;42.872;74.622;2023-07-31T00:23:24;25.50;44.50
52799;DHT22;38667;42.872;74.622;2023-07-31T00:25:52;25.30;45.00
52799;DHT22;38667;42.872;74.622;2023-07-31T00:28:18;25.40;43.80
52799;DHT22;38667;42.872;74.622;2023-07-31T00:30:44;25.60;43.00
52799;DHT22;38667;42.872;74.622;2023-07-31T00:33:11;25.60;43.00
52799;DHT22;38667;42.872;74.622;2023-07-31T00:35:37;25.40;43.00
52799;DHT22;38667;42.872;74.622;2023-07-31T00:38:03;25.50;42.80
52799;DHT22;38667;42.872;74.622;2023-07-31T00:40:30;25.80;41.40
52799;DHT22;38667;42.872;74.622;2023-07-31T00:43:01;25.90;43.00
52799;DHT22;38667;42.872;74.622;2023-07-31T00:45:27;25.70;45.30
52799;DHT22;38667;42.872;74.622;2023-07-31T00:47:54;25.40;46.90
52799;DHT22;38667;42.872;74.622;2023-07-31T00:50:21;25.40;45.30
52799;DHT22;38667;42.872;74.622;2023-07-31T00:52:48;25.50;45.10
52799;DHT22;38667;42.872;74.622;2023-07-31T00:55:14;25.70;44.70
52799;DHT22;38667;42.872;74.622;2023-07-31T00:57:41;25.80;45.40
52799;DHT22;38667;42.872;74.622;2023-07-31T01:00:11;25.80;44.70
52799;DHT22;38667;42.872;74.622;2023-07-31T01:02:38;25.90;43.60
52799;DHT22;38667;42.872;74.622;2023-07-31T01:05:05;26.00;43.60
52799;DHT22;38667;42.872;74.622;2023-07-31T01:07:37;26.10;46.80
52799;DHT22;38667;42.872;74.622;2023-07-31T01:10:20;25.90;47.90
52799;DHT22;38667;42.872;74.622;2023-07-31T01:12:48;25.60;46.50
52799;DHT22;38667;42.872;74.622;2023-07-31T01:15:16;25.50;46.10
52799;DHT22;38667;42.872;74.622;2023-07-31T01:17:43;25.80;43.00
52799;DHT22;38667;42.872;74.622;2023-07-31T01:20:12;26.10;40.80
52799;DHT22;38667;42.872;74.622;2023-07-31T01:25:56;26.30;45.80
52799;DHT22;38667;42.872;74.622;2023-07-31T01:28:30;26.00;48.10
52799;DHT22;38667;42.872;74.622;2023-07-31T01:31:00;25.90;49.20
52799;DHT22;38667;42.872;74.622;2023-07-31T01:33:28;26.00;46.40
52799;DHT22;38667;42.872;74.622;2023-07-31T01:35:56;26.20;45.40
52799;DHT22;38667;42.872;74.622;2023-07-31T01:38:22;26.40;45.10
52799;DHT22;38667;42.872;74.622;2023-07-31T01:40:51;26.30;47.60
52799;DHT22;38667;42.872;74.622;2023-07-31T01:43:19;26.20;47.90
52799;DHT22;38667;42.872;74.622;2023-07-31T01:45:46;26.20;48.00
52799;DHT22;38667;42.872;74.622;2023-07-31T01:48:12;26.30;48.20
52799;DHT22;38667;42.872;74.622;2023-07-31T01:50:38;26.50;45.70
52799;DHT22;38667;42.872;74.622;2023-07-31T01:53:04;26.70;44.60
52799;DHT22;38667;42.872;74.622;2023-07-31T01:55:31;26.80;45.60
52799;DHT22;38667;42.872;74.622;2023-07-31T01:57:57;26.70;47.60
52799;DHT22;38667;42.872;74.622;2023-07-31T02:03:09;26.70;43.40
52799;DHT22;38667;42.872;74.622;2023-07-31T02:07:40;27.00;44.70
52799;DHT22;38667;42.872;74.622;2023-07-31T02:10:07;27.00;44.40
52799;DHT22;38667;42.872;74.622;2023-07-31T02:12:33;27.00;45.40
52799;DHT22;38667;42.872;74.622;2023-07-31T02:14:59;26.90;44.30
52799;DHT22;38667;42.872;74.622;2023-07-31T02:17:26;27.00;44.50
52799;DHT22;38667;42.872;74.622;2023-07-31T02:19:52;27.20;43.90
52799;DHT22;38667;42.872;74.622;2023-07-31T02:22:19;27.40;42.70
52799;DHT22;38667;42.872;74.622;2023-07-31T02:24:47;27.60;43.40
52799;DHT22;38667;42.872;74.622;2023-07-31T02:27:13;27.60;42.80
52799;DHT22;38667;42.872;74.622;2023-07-31T02:29:39;27.40;42.50
52799;DHT22;38667;42.872;74.622;2023-07-31T02:32:06;27.40;42.00
52799;DHT22;38667;42.872;74.622;2023-07-31T02:34:32;27.50;41.50
52799;DHT22;38667;42.872;74.622;2023-07-31T02:36:59;27.80;40.10
52799;DHT22;38667;42.872;74.622;2023-07-31T02:39:25;27.90;40.10
52799;DHT22;38667;42.872;74.622;2023-07-31T02:41:53;28.00;41.80
52799;DHT22;38667;42.872;74.622;2023-07-31T02:44:19;27.90;40.90
52799;DHT22;38667;42.872;74.622;2023-07-31T02:46:45;27.90;41.10
52799;DHT22;38667;42.872;74.622;2023-07-31T02:49:12;27.80;40.70
52799;DHT22;38667;42.872;74.622;2023-07-31T02:51:38;28.00;41.40
52799;DHT22;38667;42.872;74.622;2023-07-31T02:54:04;28.20;41.20
52799;DHT22;38667;42.872;74.622;2023-07-31T02:56:31;28.40;41.70
52799;DHT22;38667;42.872;74.622;2023-07-31T02:58:59;28.40;40.90
52799;DHT22;38667;42.872;74.622;2023-07-31T03:01:25;28.40;40.70
52799;DHT22;38667;42.872;74.622;2023-07-31T03:03:51;28.30;40.90
52799;DHT22;38667;42.872;74.622;2023-07-31T03:06:17;28.50;40.30
52799;DHT22;38667;42.872;74.622;2023-07-31T03:08:44;28.70;40.50
52799;DHT22;38667;42.872;74.622;2023-07-31T03:11:10;28.90;39.20
52799;DHT22;38667;42.872;74.622;2023-07-31T03:13:36;29.00;41.10
52799;DHT22;38667;42.872;74.622;2023-07-31T03:16:04;29.00;42.10
52799;DHT22;38667;42.872;74.622;2023-07-31T03:18:31;29.10;41.30
52799;DHT22;38667;42.872;74.622;2023-07-31T03:20:57;29.10;43.80
52799;DHT22;38667;42.872;74.622;2023-07-31T03:23:23;29.20;43.00
52799;DHT22;38667;42.872;74.622;2023-07-31T03:25:56;29.20;43.60
52799;DHT22;38667;42.872;74.622;2023-07-31T03:28:22;29.30;41.80
52799;DHT22;38667;42.872;74.622;2023-07-31T03:30:49;29.20;41.00
52799;DHT22;38667;42.872;74.622;2023-07-31T03:33:17;29.20;42.00
52799;DHT22;38667;42.872;74.622;2023-07-31T03:35:43;29.40;39.80
52799;DHT22;38667;42.872;74.622;2023-07-31T03:38:09;29.50;39.50
52799;DHT22;38667;42.872;74.622;2023-07-31T03:40:36;29.60;37.70
52799;DHT22;38667;42.872;74.622;2023-07-31T03:43:02;29.70;38.70
52799;DHT22;38667;42.872;74.622;2023-07-31T03:45:28;29.70;34.30
52799;DHT22;38667;42.872;74.622;2023-07-31T03:47:55;29.90;33.10
52799;DHT22;38667;42.872;74.622;2023-07-31T03:50:23;29.90;34.80
52799;DHT22;38667;42.872;74.622;2023-07-31T03:52:49;29.80;33.50
52799;DHT22;38667;42.872;74.622;2023-07-31T03:55:15;29.70;32.40
52799;DHT22;38667;42.872;74.622;2023-07-31T03:57:42;29.80;33.30
52799;DHT22;38667;42.872;74.622;2023-07-31T04:00:09;29.90;32.80
52799;DHT22;38667;42.872;74.622;2023-07-31T04:02:36;29.90;34.20
52799;DHT22;38667;42.872;74.622;2023-07-31T04:05:02;30.00;34.30
52799;DHT22;38667;42.872;74.622;2023-07-31T04:07:30;30.20;34.10
52799;DHT22;38667;42.872;74.622;2023-07-31T04:09:57;30.30;34.70
52799;DHT22;38667;42.872;74.622;2023-07-31T04:12:23;30.50;34.00
52799;DHT22;38667;42.872;74.622;2023-07-31T04:14:50;30.60;34.20
52799;DHT22;38667;42.872;74.622;2023-07-31T04:17:17;30.60;35.10
52799;DHT22;38667;42.872;74.622;2023-07-31T04:19:44;30.60;35.80
52799;DHT22;38667;42.872;74.622;2023-07-31T04:22:10;30.60;35.60
52799;DHT22;38667;42.872;74.622;2023-07-31T04:24:38;30.60;35.70
52799;DHT22;38667;42.872;74.622;2023-07-31T04:27:05;30.70;35.00
52799;DHT22;38667;42.872;74.622;2023-07-31T04:29:31;30.80;35.40
52799;DHT22;38667;42.872;74.622;2023-07-31T04:31:57;30.80;35.80
52799;DHT22;38667;42.872;74.622;2023-07-31T04:34:24;30.70;34.40
52799;DHT22;38667;42.872;74.622;2023-07-31T04:36:50;30.60;32.80
52799;DHT22;38667;42.872;74.622;2023-07-31T04:39:16;30.70;33.10
52799;DHT22;38667;42.872;74.622;2023-07-31T04:41:44;30.80;34.30
52799;DHT22;38667;42.872;74.622;2023-07-31T04:44:10;30.80;34.80
52799;DHT22;38667;42.872;74.622;2023-07-31T04:46:37;30.90;35.30
52799;DHT22;38667;42.872;74.622;2023-07-31T04:49:03;31.00;34.20
52799;DHT22;38667;42.872;74.622;2023-07-31T04:51:29;31.00;32.80
52799;DHT22;38667;42.872;74.622;2023-07-31T04:53:56;31.10;34.10
52799;DHT22;38667;42.872;74.622;2023-07-31T04:56:23;31.20;33.30
52799;DHT22;38667;42.872;74.622;2023-07-31T04:58:50;31.20;32.40
52799;DHT22;38667;42.872;74.622;2023-07-31T05:01:17;31.30;33.00
52799;DHT22;38667;42.872;74.622;2023-07-31T05:03:43;31.30;33.50
52799;DHT22;38667;42.872;74.622;2023-07-31T05:06:09;31.40;33.60
52799;DHT22;38667;42.872;74.622;2023-07-31T05:08:36;31.50;34.30
52799;DHT22;38667;42.872;74.622;2023-07-31T05:11:02;31.40;33.90
52799;DHT22;38667;42.872;74.622;2023-07-31T05:13:29;31.30;33.40
52799;DHT22;38667;42.872;74.622;2023-07-31T05:15:56;31.30;33.50
52799;DHT22;38667;42.872;74.622;2023-07-31T05:18:23;31.30;33.50
52799;DHT22;38667;42.872;74.622;2023-07-31T05:20:49;31.40;33.30
52799;DHT22;38667;42.872;74.622;2023-07-31T05:23:15;31.40;34.30
52799;DHT22;38667;42.872;74.622;2023-07-31T05:25:42;31.50;32.70
52799;DHT22;38667;42.872;74.622;2023-07-31T05:28:08;31.60;32.70
52799;DHT22;38667;42.872;74.622;2023-07-31T05:30:34;31.80;33.60
52799;DHT22;38667;42.872;74.622;2023-07-31T05:33:02;31.90;33.70
52799;DHT22;38667;42.872;74.622;2023-07-31T05:35:29;32.00;34.20
52799;DHT22;38667;42.872;74.622;2023-07-31T05:37:55;32.00;33.60
52799;DHT22;38667;42.872;74.622;2023-07-31T05:40:21;31.90;32.60
52799;DHT22;38667;42.872;74.622;2023-07-31T05:42:47;31.90;32.70
52799;DHT22;38667;42.872;74.622;2023-07-31T05:45:14;31.90;31.40
52799;DHT22;38667;42.872;74.622;2023-07-31T05:47:40;32.00;30.00
52799;DHT22;38667;42.872;74.622;2023-07-31T05:50:09;32.10;30.30
52799;DHT22;38667;42.872;74.622;2023-07-31T05:52:35;32.20;30.20
52799;DHT22;38667;42.872;74.622;2023-07-31T05:55:01;32.50;30.10
52799;DHT22;38667;42.872;74.622;2023-07-31T05:57:28;32.70;29.50
52799;DHT22;38667;42.872;74.622;2023-07-31T05:59:54;33.00;28.50
52799;DHT22;38667;42.872;74.622;2023-07-31T06:02:20;33.20;28.80
52799;DHT22;38667;42.872;74.622;2023-07-31T06:04:47;33.50;28.90
52799;DHT22;38667;42.872;74.622;2023-07-31T06:07:14;33.90;28.80
52799;DHT22;38667;42.872;74.622;2023-07-31T06:09:41;34.30;29.00
52799;DHT22;38667;42.872;74.622;2023-07-31T06:12:07;34.50;28.80
52799;DHT22;38667;42.872;74.622;2023-07-31T06:14:34;34.60;27.70
52799;DHT22;38667;42.872;74.622;2023-07-31T06:17:00;34.40;28.70
52799;DHT22;38667;42.872;74.622;2023-07-31T06:19:26;34.30;28.90
52799;DHT22;38667;42.872;74.622;2023-07-31T06:21:53;33.90;29.80
52799;DHT22;38667;42.872;74.622;2023-07-31T06:24:21;33.60;28.80
52799;DHT22;38667;42.872;74.622;2023-07-31T06:26:47;33.40;29.40
52799;DHT22;38667;42.872;74.622;2023-07-31T06:29:13;33.30;30.70
52799;DHT22;38667;42.872;74.622;2023-07-31T06:31:41;33.10;31.70
52799;DHT22;38667;42.872;74.622;2023-07-31T06:34:07;32.90;31.30
52799;DHT22;38667;42.872;74.622;2023-07-31T06:36:33;32.70;29.30
52799;DHT22;38667;42.872;74.622;2023-07-31T06:39:00;32.70;29.80
52799;DHT22;38667;42.872;74.622;2023-07-31T06:41:27;32.70;31.50
52799;DHT22;38667;42.872;74.622;2023-07-31T06:43:54;32.60;32.00
52799;DHT22;38667;42.872;74.622;2023-07-31T06:46:20;32.80;31.70
52799;DHT22;38667;42.872;74.622;2023-07-31T06:48:46;32.80;31.30
52799;DHT22;38667;42.872;74.622;2023-07-31T06:51:13;32.60;29.60
52799;DHT22;38667;42.872;74.622;2023-07-31T06:53:39;32.50;29.90
52799;DHT22;38667;42.872;74.622;2023-07-31T06:56:05;32.40;31.70
52799;DHT22;38667;42.872;74.622;2023-07-31T06:58:33;32.40;29.50
52799;DHT22;38667;42.872;74.622;2023-07-31T07:00:59;32.60;29.50
52799;DHT22;38667;42.872;74.622;2023-07-31T07:03:26;32.60;30.10
52799;DHT22;38667;42.872;74.622;2023-07-31T07:05:52;32.80;30.90
52799;DHT22;38667;42.872;74.622;2023-07-31T07:08:18;32.80;30.60
52799;DHT22;38667;42.872;74.622;2023-07-31T07:10:45;32.70;30.70
52799;DHT22;38667;42.872;74.622;2023-07-31T07:13:12;32.70;31.00
52799;DHT22;38667;42.872;74.622;2023-07-31T07:15:40;32.40;30.30
52799;DHT22;38667;42.872;74.622;2023-07-31T07:18:06;32.20;31.80
52799;DHT22;38667;42.872;74.622;2023-07-31T07:20:32;32.00;33.50
52799;DHT22;38667;42.872;74.622;2023-07-31T07:22:59;32.00;33.20
52799;DHT22;38667;42.872;74.622;2023-07-31T07:25:25;31.90;33.70
52799;DHT22;38667;42.872;74.622;2023-07-31T07:27:51;31.90;32.10
52799;DHT22;38667;42.872;74.622;2023-07-31T07:30:18;31.90;34.00
52799;DHT22;38667;42.872;74.622;2023-07-31T07:32:45;31.90;34.30
52799;DHT22;38667;42.872;74.622;2023-07-31T07:35:12;32.30;33.80
52799;DHT22;38667;42.872;74.622;2023-07-31T07:37:38;33.10;32.60
52799;DHT22;38667;42.872;74.622;2023-07-31T07:40:06;33.20;30.60
52799;DHT22;38667;42.872;74.622;2023-07-31T07:42:32;33.00;31.20
52799;DHT22;38667;42.872;74.622;2023-07-31T07:44:59;33.00;31.90
52799;DHT22;38667;42.872;74.622;2023-07-31T07:47:25;33.00;31.40
52799;DHT22;38667;42.872;74.622;2023-07-31T07:49:53;33.00;30.50
52799;DHT22;38667;42.872;74.622;2023-07-31T07:52:19;33.00;32.10
52799;DHT22;38667;42.872;74.622;2023-07-31T07:54:45;32.90;30.30
52799;DHT22;38667;42.872;74.622;2023-07-31T07:57:12;32.70;29.60
52799;DHT22;38667;42.872;74.622;2023-07-31T07:59:38;32.40;30.20
52799;DHT22;38667;42.872;74.622;2023-07-31T08:02:05;32.10;29.50
52799;DHT22;38667;42.872;74.622;2023-07-31T08:04:31;32.00;30.80
52799;DHT22;38667;42.872;74.622;2023-07-31T08:06:59;31.90;30.60
52799;DHT22;38667;42.872;74.622;2023-07-31T08:09:25;31.80;30.50
52799;DHT22;38667;42.872;74.622;2023-07-31T08:11:51;31.80;31.10
52799;DHT22;38667;42.872;74.622;2023-07-31T08:14:18;31.80;30.30
52799;DHT22;38667;42.872;74.622;2023-07-31T08:16:44;31.70;30.30
52799;DHT22;38667;42.872;74.622;2023-07-31T08:19:10;31.60;30.70
52799;DHT22;38667;42.872;74.622;2023-07-31T08:21:37;31.60;32.80
52799;DHT22;38667;42.872;74.622;2023-07-31T08:24:05;31.50;29.50
52799;DHT22;38667;42.872;74.622;2023-07-31T08:26:32;31.50;30.20
52799;DHT22;38667;42.872;74.622;2023-07-31T08:28:58;31.50;30.00
52799;DHT22;38667;42.872;74.622;2023-07-31T08:31:24;31.40;29.30
52799;DHT22;38667;42.872;74.622;2023-07-31T08:33:51;31.50;30.70
52799;DHT22;38667;42.872;74.622;2023-07-31T08:36:17;31.50;31.50
52799;DHT22;38667;42.872;74.622;2023-07-31T08:38:44;31.50;30.60
52799;DHT22;38667;42.872;74.622;2023-07-31T08:41:12;31.40;30.50
52799;DHT22;38667;42.872;74.622;2023-07-31T08:43:39;31.40;31.60
52799;DHT22;38667;42.872;74.622;2023-07-31T08:46:05;31.40;31.80
52799;DHT22;38667;42.872;74.622;2023-07-31T08:48:32;31.40;30.80
52799;DHT22;38667;42.872;74.622;2023-07-31T08:50:58;31.30;30.40
52799;DHT22;38667;42.872;74.622;2023-07-31T08:53:25;31.20;32.00
52799;DHT22;38667;42.872;74.622;2023-07-31T08:55:53;31.20;30.30
52799;DHT22;38667;42.872;74.622;2023-07-31T08:58:21;31.20;30.80
52799;DHT22;38667;42.872;74.622;2023-07-31T09:00:48;31.30;30.90
52799;DHT22;38667;42.872;74.622;2023-07-31T09:03:18;31.20;30.30
52799;DHT22;38667;42.872;74.622;2023-07-31T09:05:45;31.20;30.00
52799;DHT22;38667;42.872;74.622;2023-07-31T09:08:13;31.20;30.50
52799;DHT22;38667;42.872;74.622;2023-07-31T09:10:41;31.30;30.50
52799;DHT22;38667;42.872;74.622;2023-07-31T09:13:08;31.30;30.60
52799;DHT22;38667;42.872;74.622;2023-07-31T09:15:37;31.20;30.50
52799;DHT22;38667;42.872;74.622;2023-07-31T09:18:04;30.80;29.80
52799;DHT22;38667;42.872;74.622;2023-07-31T09:20:31;30.30;30.50
52799;DHT22;38667;42.872;74.622;2023-07-31T09:23:06;30.10;31.30
52799;DHT22;38667;42.872;74.622;2023-07-31T09:25:32;29.90;30.80
52799;DHT22;38667;42.872;74.622;2023-07-31T09:28:00;29.60;31.30
52799;DHT22;38667;42.872;74.622;2023-07-31T09:30:26;29.60;30.60
52799;DHT22;38667;42.872;74.622;2023-07-31T09:33:03;29.80;29.80
52799;DHT22;38667;42.872;74.622;2023-07-31T09:35:32;30.00;29.50
52799;DHT22;38667;42.872;74.622;2023-07-31T09:37:59;30.10;29.50
52799;DHT22;38667;42.872;74.622;2023-07-31T09:40:31;30.30;29.40
52799;DHT22;38667;42.872;74.622;2023-07-31T09:42:58;30.70;28.50
52799;DHT22;38667;42.872;74.622;2023-07-31T09:45:25;31.30;28.80
52799;DHT22;38667;42.872;74.622;2023-07-31T09:47:51;31.70;27.30
52799;DHT22;38667;42.872;74.622;2023-07-31T09:50:20;31.70;28.40
52799;DHT22;38667;42.872;74.622;2023-07-31T09:52:47;31.70;29.40
52799;DHT22;38667;42.872;74.622;2023-07-31T09:55:13;31.60;31.30
52799;DHT22;38667;42.872;74.622;2023-07-31T09:57:41;31.30;31.40
52799;DHT22;38667;42.872;74.622;2023-07-31T10:00:08;31.30;31.10
52799;DHT22;38667;42.872;74.622;2023-07-31T10:02:35;31.10;31.90
52799;DHT22;38667;42.872;74.622;2023-07-31T10:05:03;30.90;32.60
52799;DHT22;38667;42.872;74.622;2023-07-31T10:07:33;30.60;32.40
52799;DHT22;38667;42.872;74.622;2023-07-31T10:10:00;30.50;33.00
52799;DHT22;38667;42.872;74.622;2023-07-31T10:12:27;30.70;33.10
52799;DHT22;38667;42.872;74.622;2023-07-31T10:14:54;30.80;31.50
52799;DHT22;38667;42.872;74.622;2023-07-31T10:17:21;30.90;31.20
52799;DHT22;38667;42.872;74.622;2023-07-31T10:19:48;31.10;32.20
52799;DHT22;38667;42.872;74.622;2023-07-31T10:22:15;31.10;32.50
52799;DHT22;38667;42.872;74.622;2023-07-31T10:24:43;31.00;32.20
52799;DHT22;38667;42.872;74.622;2023-07-31T10:27:11;31.10;32.60
52799;DHT22;38667;42.872;74.622;2023-07-31T10:29:37;31.20;32.40
52799;DHT22;38667;42.872;74.622;2023-07-31T10:32:06;31.20;32.00
52799;DHT22;38667;42.872;74.622;2023-07-31T10:34:33;31.30;32.70
52799;DHT22;38667;42.872;74.622;2023-07-31T10:37:22;31.30;31.30
52799;DHT22;38667;42.872;74.622;2023-07-31T10:39:59;31.30;31.00
52799;DHT22;38667;42.872;74.622;2023-07-31T10:42:32;31.30;31.40
52799;DHT22;38667;42.872;74.622;2023-07-31T10:44:59;31.30;32.10
52799;DHT22;38667;42.872;74.622;2023-07-31T10:47:26;31.60;31.80
52799;DHT22;38667;42.872;74.622;2023-07-31T10:49:52;31.80;31.80
52799;DHT22;38667;42.872;74.622;2023-07-31T10:52:20;32.00;30.30
52799;DHT22;38667;42.872;74.622;2023-07-31T10:54:47;32.10;30.10
52799;DHT22;38667;42.872;74.622;2023-07-31T10:57:21;32.30;28.00
52799;DHT22;38667;42.872;74.622;2023-07-31T10:59:48;32.50;25.80
52799;DHT22;38667;42.872;74.622;2023-07-31T11:02:25;32.70;28.80
52799;DHT22;38667;42.872;74.622;2023-07-31T11:05:06;32.70;30.90
52799;DHT22;38667;42.872;74.622;2023-07-31T11:07:47;32.50;32.00
52799;DHT22;38667;42.872;74.622;2023-07-31T11:10:16;32.50;31.90
52799;DHT22;38667;42.872;74.622;2023-07-31T11:12:45;32.60;32.20
52799;DHT22;38667;42.872;74.622;2023-07-31T11:15:11;32.50;28.70
52799;DHT22;38667;42.872;74.622;2023-07-31T11:17:39;32.60;28.30
52799;DHT22;38667;42.872;74.622;2023-07-31T11:20:06;32.60;28.30
52799;DHT22;38667;42.872;74.622;2023-07-31T11:22:32;32.50;30.30
52799;DHT22;38667;42.872;74.622;2023-07-31T11:25:00;32.40;29.90
52799;DHT22;38667;42.872;74.622;2023-07-31T11:27:28;32.20;30.60
52799;DHT22;38667;42.872;74.622;2023-07-31T11:30:00;32.20;30.20
52799;DHT22;38667;42.872;74.622;2023-07-31T11:32:26;32.10;30.70
52799;DHT22;38667;42.872;74.622;2023-07-31T11:34:53;32.00;31.50
52799;DHT22;38667;42.872;74.622;2023-07-31T11:37:19;31.90;33.10
52799;DHT22;38667;42.872;74.622;2023-07-31T11:39:59;32.00;31.10
52799;DHT22;38667;42.872;74.622;2023-07-31T11:42:25;31.90;32.40
52799;DHT22;38667;42.872;74.622;2023-07-31T11:44:51;31.80;34.10
52799;DHT22;38667;42.872;74.622;2023-07-31T11:47:20;31.70;34.80
52799;DHT22;38667;42.872;74.622;2023-07-31T11:49:46;31.60;35.50
52799;DHT22;38667;42.872;74.622;2023-07-31T11:52:14;31.50;34.90
52799;DHT22;38667;42.872;74.622;2023-07-31T11:54:41;31.50;33.40
52799;DHT22;38667;42.872;74.622;2023-07-31T11:57:08;31.70;33.00
52799;DHT22;38667;42.872;74.622;2023-07-31T11:59:34;31.70;33.30
52799;DHT22;38667;42.872;74.622;2023-07-31T12:02:01;31.50;33.30
52799;DHT22;38667;42.872;74.622;2023-07-31T12:04:29;31.30;35.10
52799;DHT22;38667;42.872;74.622;2023-07-31T12:06:56;31.20;34.80
52799;DHT22;38667;42.872;74.622;2023-07-31T12:09:22;31.10;34.70
52799;DHT22;38667;42.872;74.622;2023-07-31T12:11:49;31.30;34.10
52799;DHT22;38667;42.872;74.622;2023-07-31T12:14:22;31.30;33.70
52799;DHT22;38667;42.872;74.622;2023-07-31T12:16:54;31.30;34.20
52799;DHT22;38667;42.872;74.622;2023-07-31T12:19:20;31.30;33.70
52799;DHT22;38667;42.872;74.622;2023-07-31T12:21:49;31.20;32.70
52799;DHT22;38667;42.872;74.622;2023-07-31T12:24:18;31.00;33.20
52799;DHT22;38667;42.872;74.622;2023-07-31T12:26:46;30.90;32.90
52799;DHT22;38667;42.872;74.622;2023-07-31T12:29:12;30.80;32.50
52799;DHT22;38667;42.872;74.622;2023-07-31T12:31:41;30.80;32.30
52799;DHT22;38667;42.872;74.622;2023-07-31T12:34:15;30.80;32.40
52799;DHT22;38667;42.872;74.622;2023-07-31T12:36:43;30.80;30.60
52799;DHT22;38667;42.872;74.622;2023-07-31T12:39:10;30.90;29.60
52799;DHT22;38667;42.872;74.622;2023-07-31T12:41:37;31.10;31.00
52799;DHT22;38667;42.872;74.622;2023-07-31T12:44:03;31.00;31.30
52799;DHT22;38667;42.872;74.622;2023-07-31T12:46:30;31.00;32.00
52799;DHT22;38667;42.872;74.622;2023-07-31T12:48:56;30.90;32.10
52799;DHT22;38667;42.872;74.622;2023-07-31T12:51:23;30.90;31.60
52799;DHT22;38667;42.872;74.622;2023-07-31T12:53:50;30.90;32.80
52799;DHT22;38667;42.872;74.622;2023-07-31T12:56:18;30.90;32.10
52799;DHT22;38667;42.872;74.622;2023-07-31T12:58:44;31.00;32.10
52799;DHT22;38667;42.872;74.622;2023-07-31T13:01:10;31.00;33.10
52799;DHT22;38667;42.872;74.622;2023-07-31T13:03:36;30.90;33.60
52799;DHT22;38667;42.872;74.622;2023-07-31T13:06:03;30.70;34.30
52799;DHT22;38667;42.872;74.622;2023-07-31T13:08:30;30.50;34.60
52799;DHT22;38667;42.872;74.622;2023-07-31T13:10:56;30.40;35.40
52799;DHT22;38667;42.872;74.622;2023-07-31T13:13:24;30.20;35.60
52799;DHT22;38667;42.872;74.622;2023-07-31T13:15:50;30.20;34.20
52799;DHT22;38667;42.872;74.622;2023-07-31T13:18:17;30.40;33.70
52799;DHT22;38667;42.872;74.622;2023-07-31T13:20:43;30.50;34.00
52799;DHT22;38667;42.872;74.622;2023-07-31T13:23:09;30.40;35.10
52799;DHT22;38667;42.872;74.622;2023-07-31T13:25:35;30.20;35.90
52799;DHT22;38667;42.872;74.622;2023-07-31T13:28:02;30.10;36.10
52799;DHT22;38667;42.872;74.622;2023-07-31T13:30:30;30.00;35.90
52799;DHT22;38667;42.872;74.622;2023-07-31T13:32:56;30.00;41.10
52799;DHT22;38667;42.872;74.622;2023-07-31T13:35:22;29.80;37.00
52799;DHT22;38667;42.872;74.622;2023-07-31T13:37:49;29.70;36.10
52799;DHT22;38667;42.872;74.622;2023-07-31T13:40:15;29.70;35.20
52799;DHT22;38667;42.872;74.622;2023-07-31T13:42:41;29.70;35.10
52799;DHT22;38667;42.872;74.622;2023-07-31T13:45:08;29.70;36.50
52799;DHT22;38667;42.872;74.622;2023-07-31T13:47:36;29.70;34.40
52799;DHT22;38667;42.872;74.622;2023-07-31T13:50:03;29.70;36.10
52799;DHT22;38667;42.872;74.622;2023-07-31T13:52:29;29.70;36.40
52799;DHT22;38667;42.872;74.622;2023-07-31T13:54:55;29.50;38.40
52799;DHT22;38667;42.872;74.622;2023-07-31T13:57:22;29.30;39.90
52799;DHT22;38667;42.872;74.622;2023-07-31T13:59:48;29.10;40.10
52799;DHT22;38667;42.872;74.622;2023-07-31T14:02:14;28.90;40.20
52799;DHT22;38667;42.872;74.622;2023-07-31T14:04:42;28.70;40.50
52799;DHT22;38667;42.872;74.622;2023-07-31T14:07:09;28.50;40.30
52799;DHT22;38667;42.872;74.622;2023-07-31T14:09:35;28.40;40.60
52799;DHT22;38667;42.872;74.622;2023-07-31T14:12:02;28.30;39.90
52799;DHT22;38667;42.872;74.622;2023-07-31T14:14:28;28.20;41.40
52799;DHT22;38667;42.872;74.622;2023-07-31T14:16:54;28.10;41.00
52799;DHT22;38667;42.872;74.622;2023-07-31T14:19:21;28.00;40.80
52799;DHT22;38667;42.872;74.622;2023-07-31T14:21:49;27.90;41.60
52799;DHT22;38667;42.872;74.622;2023-07-31T14:24:15;27.80;42.80
52799;DHT22;38667;42.872;74.622;2023-07-31T14:26:41;27.60;43.20
52799;DHT22;38667;42.872;74.622;2023-07-31T14:29:07;27.50;43.40
52799;DHT22;38667;42.872;74.622;2023-07-31T14:31:34;27.60;43.80
52799;DHT22;38667;42.872;74.622;2023-07-31T14:34:00;27.50;43.20
52799;DHT22;38667;42.872;74.622;2023-07-31T14:36:26;27.40;42.30
52799;DHT22;38667;42.872;74.622;2023-07-31T14:38:54;27.40;43.00
52799;DHT22;38667;42.872;74.622;2023-07-31T14:41:21;27.40;43.50
52799;DHT22;38667;42.872;74.622;2023-07-31T14:43:47;27.40;43.60
52799;DHT22;38667;42.872;74.622;2023-07-31T14:46:13;27.30;44.10
52799;DHT22;38667;42.872;74.622;2023-07-31T14:48:39;27.20;43.60
52799;DHT22;38667;42.872;74.622;2023-07-31T14:51:06;27.30;43.60
52799;DHT22;38667;42.872;74.622;2023-07-31T14:53:32;27.30;42.20
52799;DHT22;38667;42.872;74.622;2023-07-31T14:56:00;27.70;41.90
52799;DHT22;38667;42.872;74.622;2023-07-31T14:58:26;28.00;42.50
52799;DHT22;38667;42.872;74.622;2023-07-31T15:00:53;28.10;41.90
52799;DHT22;38667;42.872;74.622;2023-07-31T15:03:19;28.10;41.90
52799;DHT22;38667;42.872;74.622;2023-07-31T15:05:45;28.10;42.20
52799;DHT22;38667;42.872;74.622;2023-07-31T15:08:12;28.00;42.40
52799;DHT22;38667;42.872;74.622;2023-07-31T15:10:38;27.90;42.00
52799;DHT22;38667;42.872;74.622;2023-07-31T15:13:06;28.00;42.40
52799;DHT22;38667;42.872;74.622;2023-07-31T15:15:32;27.90;42.00
52799;DHT22;38667;42.872;74.622;2023-07-31T15:17:59;28.00;41.80
52799;DHT22;38667;42.872;74.622;2023-07-31T15:20:25;28.00;42.10
52799;DHT22;38667;42.872;74.622;2023-07-31T15:22:51;28.00;42.20